Time;durP1;ratioP1;P1;durP2;ratioP2;P2;SDS_P1;SDS_P2;PMS_P1;PMS_P2;Temp;Humidity;BMP_temperature;BMP_pressure;BME280_temperature;BME280_humidity;BME280_pressure;Samples;Min_cycle;Max_cycle;Signal;HPM_P1;HPM_P2
2021/12/09 00:01:37;;;;;;;4.93;2.33;;;3.00;99.90;;;2.05;100.00;95885.28;5017676;28;20021;-40
2021/12/09 00:04:07;;;;;;;6.38;2.45;;;3.00;99.90;;;2.06;100.00;95884.41;5019384;28;20220;-45
2021/12/09 00:06:35;;;;;;;5.47;2.28;;;2.90;99.90;;;1.99;100.00;95881.97;5015804;28;20417;-47
2021/12/09 00:09:09;;;;;;;7.55;2.33;;;2.90;99.90;;;1.93;100.00;95885.59;5019539;28;20025;-48
2021/12/09 00:11:43;;;;;;;4.70;2.17;;;2.80;99.90;;;1.89;100.00;95884.84;5017162;28;20068;-41
2021/12/09 00:14:17;;;;;;;8.57;2.42;;;2.80;99.90;;;1.84;100.00;95884.09;5016857;28;20031;-43
2021/12/09 00:16:43;;;;;;;6.68;1.88;;;2.70;99.90;;;1.73;100.00;95873.16;5015516;28;20929;-44
2021/12/09 00:19:09;;;;;;;4.75;1.70;;;2.70;99.90;;;1.75;100.00;95881.75;5017419;28;20099;-42
2021/12/09 00:21:36;;;;;;;6.43;1.70;;;2.70;99.90;;;1.74;100.00;95892.19;5015958;28;20412;-41
2021/12/09 00:24:02;;;;;;;6.63;1.73;;;2.60;99.90;;;1.67;100.00;95888.88;5018501;28;20410;-44
2021/12/09 00:26:27;;;;;;;8.68;2.15;;;2.60;99.90;;;1.66;100.00;95887.19;5019570;28;20040;-42
2021/12/09 00:28:53;;;;;;;5.57;1.60;;;2.60;99.90;;;1.59;100.00;95886.50;5019453;28;20116;-47
2021/12/09 00:31:19;;;;;;;3.95;1.63;;;2.50;99.90;;;1.58;100.00;95886.53;5021381;28;20116;-45
2021/12/09 00:33:47;;;;;;;6.78;2.03;;;2.50;99.90;;;1.57;100.00;95890.03;5019160;28;20367;-44
2021/12/09 00:36:17;;;;;;;4.15;1.60;;;2.50;99.90;;;1.60;100.00;95893.41;5013216;28;20025;-46
2021/12/09 00:38:43;;;;;;;5.22;1.88;;;2.50;99.90;;;1.58;100.00;95897.81;5026576;28;20048;-43
2021/12/09 00:41:13;;;;;;;9.05;1.83;;;2.50;99.90;;;1.58;100.00;95897.81;5015137;28;20029;-47
2021/12/09 00:43:42;;;;;;;4.40;1.65;;;2.50;99.90;;;1.58;100.00;95899.53;5016948;28;20583;-46
2021/12/09 00:46:09;;;;;;;5.15;1.60;;;2.50;99.90;;;1.62;100.00;95894.22;5019036;28;20029;-46
2021/12/09 00:48:36;;;;;;;9.02;1.88;;;2.50;99.90;;;1.66;100.00;95898.44;5014123;28;20333;-46
2021/12/09 00:51:03;;;;;;;6.72;1.77;;;2.50;99.90;;;1.71;100.00;95906.97;5017918;28;20132;-43
2021/12/09 00:53:29;;;;;;;4.30;1.73;;;2.60;99.90;;;1.69;100.00;95895.78;5013573;28;20033;-49
2021/12/09 00:55:55;;;;;;;6.85;1.67;;;2.60;99.90;;;1.70;100.00;95902.66;5014296;28;20029;-46
2021/12/09 00:58:21;;;;;;;4.43;1.35;;;2.60;99.90;;;1.74;100.00;95905.19;5016808;28;20021;-43
2021/12/09 01:00:48;;;;;;;4.45;1.60;;;2.60;99.90;;;1.77;100.00;95908.56;5018760;28;20514;-45
2021/12/09 01:03:14;;;;;;;7.53;1.70;;;2.60;99.90;;;1.72;100.00;95910.41;5020505;28;20273;-45
2021/12/09 01:05:40;;;;;;;3.20;1.40;;;2.60;99.90;;;1.79;100.00;95911.13;5019225;28;20060;-43
2021/12/09 01:08:06;;;;;;;6.03;1.40;;;2.60;99.90;;;1.84;100.00;95912.69;5018352;28;20139;-45
2021/12/09 01:10:33;;;;;;;4.25;1.50;;;2.60;99.90;;;1.85;100.00;95910.97;5010106;28;20029;-47
2021/12/09 01:12:59;;;;;;;4.95;1.45;;;2.70;99.90;;;1.81;100.00;95904.13;5020345;28;20083;-45
2021/12/09 01:15:25;;;;;;;6.65;1.30;;;2.70;99.90;;;1.85;100.00;95905.78;5018420;28;20430;-48
2021/12/09 01:17:51;;;;;;;4.80;1.20;;;2.70;99.90;;;1.94;100.00;95905.53;5025673;28;20033;-44
2021/12/09 01:20:24;;;;;;;5.22;1.40;;;2.70;99.90;;;1.95;100.00;95909.81;5023002;28;20045;-42
2021/12/09 01:22:53;;;;;;;2.83;1.25;;;2.80;99.90;;;1.97;100.00;95910.63;5024835;28;20091;-46
2021/12/09 01:25:20;;;;;;;2.78;1.63;;;2.70;99.90;;;1.98;100.00;95912.34;5018601;28;20582;-46
2021/12/09 01:27:47;;;;;;;4.45;1.48;;;2.80;99.90;;;2.00;100.00;95915.75;5021404;28;20037;-47
2021/12/09 01:30:18;;;;;;;2.75;1.33;;;2.80;99.90;;;2.01;100.00;95916.59;5017694;28;20025;-46
2021/12/09 01:32:51;;;;;;;6.68;1.92;;;2.80;99.90;;;2.05;100.00;95921.69;5022061;28;20103;-44
2021/12/09 01:35:34;;;;;;;4.60;1.40;;;2.90;99.90;;;2.06;100.00;95919.94;5022074;28;20036;-46
2021/12/09 01:38:09;;;;;;;5.32;1.73;;;2.90;99.90;;;2.08;100.00;95923.34;5028319;28;20056;-44
2021/12/09 01:40:36;;;;;;;4.55;1.80;;;2.90;99.90;;;2.06;100.00;95926.00;5025734;28;20033;-45
2021/12/09 01:43:02;;;;;;;4.22;1.60;;;2.90;99.90;;;1.98;100.00;95909.75;5007855;28;20440;-46
2021/12/09 01:45:28;;;;;;;3.50;1.77;;;2.90;99.90;;;2.12;100.00;95944.91;5024589;28;20029;-41
2021/12/09 01:47:54;;;;;;;3.85;1.88;;;2.90;99.90;;;2.13;100.00;95937.06;5027924;28;20063;-46
2021/12/09 01:50:21;;;;;;;5.07;2.28;;;2.90;99.90;;;2.16;100.00;95937.00;5020072;28;20448;-46
2021/12/09 01:52:47;;;;;;;4.90;2.15;;;3.00;99.90;;;2.20;100.00;95932.56;5016909;28;20025;-45
2021/12/09 01:55:15;;;;;;;3.53;1.90;;;3.00;99.90;;;2.20;100.00;95932.56;5022489;28;20091;-46
2021/12/09 01:57:41;;;;;;;4.00;2.08;;;3.00;99.90;;;2.24;100.00;95931.56;5025129;28;20098;-41
2021/12/09 02:00:13;;;;;;;7.10;2.13;;;3.00;99.90;;;2.21;100.00;95934.28;5021890;28;20075;-43
2021/12/09 02:02:41;;;;;;;6.03;2.58;;;3.10;99.90;;;2.19;100.00;95923.91;5022664;28;20037;-46
2021/12/09 02:05:09;;;;;;;5.53;2.30;;;3.00;99.90;;;2.17;100.00;95922.22;5020858;28;20110;-44
2021/12/09 02:07:35;;;;;;;5.43;2.50;;;3.00;99.90;;;2.12;100.00;95927.56;5023765;28;20181;-45
2021/12/09 02:10:02;;;;;;;4.88;2.38;;;3.00;99.90;;;2.14;100.00;95936.19;5023551;28;20037;-42
2021/12/09 02:12:28;;;;;;;5.40;1.77;;;2.90;99.90;;;2.14;100.00;95938.78;5010323;28;20021;-44
2021/12/09 02:14:58;;;;;;;4.43;2.13;;;2.90;99.90;;;2.13;100.00;95942.28;5024408;28;20246;-39
2021/12/09 02:17:27;;;;;;;8.25;3.40;;;3.00;99.90;;;2.07;100.00;95948.50;5022796;28;20025;-43
2021/12/09 02:19:57;;;;;;;10.45;3.88;;;2.90;99.90;;;2.00;100.00;95954.75;5025647;28;20024;-45
2021/12/09 02:22:23;;;;;;;7.10;3.90;;;2.90;99.90;;;1.99;100.00;95959.97;5029704;28;20092;-45
2021/12/09 02:24:48;;;;;;;7.88;3.50;;;2.90;99.90;;;1.99;100.00;95963.47;5027231;28;20029;-43
2021/12/09 02:27:14;;;;;;;11.73;3.92;;;2.90;99.90;;;2.02;100.00;95968.56;5029743;28;20029;-44
2021/12/09 02:29:41;;;;;;;11.93;4.18;;;2.90;99.90;;;2.00;100.00;95972.09;5024345;28;20040;-45
2021/12/09 02:32:07;;;;;;;13.02;4.45;;;2.90;99.90;;;1.99;100.00;95981.66;5025437;28;20060;-44
2021/12/09 02:34:34;;;;;;;11.32;5.30;;;2.90;99.90;;;2.00;100.00;95980.75;5023483;28;20067;-43
2021/12/09 02:37:00;;;;;;;11.25;4.18;;;2.90;99.90;;;1.98;100.00;95985.13;5027842;28;20037;-46
2021/12/09 02:39:26;;;;;;;5.65;3.40;;;2.90;99.90;;;1.93;100.00;95989.59;5020335;28;20703;-37
2021/12/09 02:41:52;;;;;;;11.40;2.95;;;2.90;99.90;;;1.84;100.00;95987.25;5024505;28;20033;-44
2021/12/09 02:44:20;;;;;;;8.60;2.80;;;2.80;99.90;;;1.83;100.00;95993.31;5024500;28;20148;-45
2021/12/09 02:46:55;;;;;;;13.98;3.72;;;2.70;99.90;;;1.80;100.00;95991.66;5030834;28;20057;-46
2021/12/09 02:49:26;;;;;;;8.50;3.33;;;2.70;99.90;;;1.75;100.00;95988.31;5020328;28;20309;-42
2021/12/09 02:51:54;;;;;;;8.20;3.83;;;2.70;99.90;;;1.73;100.00;95989.25;5022135;28;20033;-40
2021/12/09 02:54:22;;;;;;;13.23;4.05;;;2.70;99.90;;;1.68;100.00;95977.22;5020166;28;20025;-43
2021/12/09 02:56:50;;;;;;;31.73;5.45;;;2.60;99.90;;;1.68;100.00;95981.56;5019353;28;20495;-45
2021/12/09 02:59:17;;;;;;;24.13;5.25;;;2.60;99.90;;;1.69;100.00;95972.88;5014973;28;20032;-44
2021/12/09 03:01:58;;;;;;;17.60;4.60;;;2.60;99.90;;;1.65;100.00;95969.50;5019244;28;20314;-45
2021/12/09 03:04:53;;;;;;;15.73;4.75;;;2.60;99.90;;;1.68;100.00;95971.16;5023355;28;20489;-45
2021/12/09 03:07:34;;;;;;;11.18;4.50;;;2.50;99.90;;;1.70;100.00;95975.44;5014443;28;20056;-45
2021/12/09 03:10:24;;;;;;;21.45;5.47;;;2.50;99.90;;;1.67;100.00;95980.72;5019109;28;20579;-44
2021/12/09 03:12:55;;;;;;;8.68;4.50;;;2.60;99.90;;;1.63;100.00;95963.47;5020997;28;20041;-42
2021/12/09 03:15:22;;;;;;;17.85;4.78;;;2.60;99.90;;;1.70;100.00;95975.44;5020372;28;20022;-46
2021/12/09 03:17:49;;;;;;;13.10;4.80;;;2.50;99.90;;;1.69;100.00;95971.13;5023393;28;20438;-44
2021/12/09 03:20:19;;;;;;;9.82;4.40;;;2.60;99.90;;;1.71;100.00;95973.69;5024136;28;20560;-46
2021/12/09 03:22:48;;;;;;;12.63;4.88;;;2.60;99.90;;;1.71;100.00;95984.09;5024836;28;20490;-42
2021/12/09 03:25:17;;;;;;;10.38;5.03;;;2.60;99.90;;;1.79;100.00;95971.75;5027561;28;20421;-44
2021/12/09 03:27:43;;;;;;;15.45;4.53;;;2.60;99.90;;;1.79;100.00;95976.09;5022023;28;20083;-42
2021/12/09 03:30:13;;;;;;;14.75;4.53;;;2.60;99.90;;;1.75;100.00;95977.06;5022882;28;20341;-43
2021/12/09 03:32:39;;;;;;;29.77;5.53;;;2.60;99.90;;;1.71;100.00;95968.50;5025264;28;20013;-41
2021/12/09 03:35:07;;;;;;;19.40;5.60;;;2.60;99.90;;;1.67;100.00;95970.31;5008622;28;20030;-44
2021/12/09 03:37:32;;;;;;;9.05;4.53;;;2.60;99.90;;;1.70;100.00;95980.63;5027456;28;20025;-48
2021/12/09 03:39:58;;;;;;;8.95;4.53;;;2.60;99.90;;;1.69;100.00;95988.47;5023791;28;20099;-44
2021/12/09 03:42:28;;;;;;;14.45;4.95;;;2.60;99.90;;;1.68;100.00;95987.59;5009964;28;20610;-45
2021/12/09 03:44:55;;;;;;;11.88;4.90;;;2.60;99.90;;;1.64;100.00;95985.13;5021313;28;20044;-43
2021/12/09 03:47:25;;;;;;;12.93;5.03;;;2.60;99.90;;;1.69;100.00;95991.09;5026046;28;20057;-46
2021/12/09 03:49:51;;;;;;;13.95;5.45;;;2.60;99.90;;;1.70;100.00;95987.56;5019729;28;20522;-43
2021/12/09 03:52:17;;;;;;;14.10;4.97;;;2.60;99.90;;;1.69;100.00;95988.47;5019281;28;20434;-46
2021/12/09 03:54:44;;;;;;;11.85;4.88;;;2.60;99.90;;;1.67;100.00;95988.50;5023306;28;20141;-45
2021/12/09 03:57:11;;;;;;;16.63;4.97;;;2.60;99.90;;;1.70;100.00;95991.00;5025714;28;20455;-46
2021/12/09 03:59:38;;;;;;;10.63;4.95;;;2.60;99.90;;;1.70;100.00;96003.16;5014670;28;20102;-45
2021/12/09 04:02:04;;;;;;;13.85;5.70;;;2.60;99.90;;;1.70;100.00;96006.59;5021699;28;20040;-46
2021/12/09 04:04:30;;;;;;;13.18;5.45;;;2.60;99.90;;;1.75;100.00;96003.06;5028014;28;20025;-43
2021/12/09 04:06:56;;;;;;;11.07;4.80;;;2.60;99.90;;;1.71;100.00;96000.53;5020995;28;20593;-45
2021/12/09 04:09:23;;;;;;;11.02;5.18;;;2.70;99.90;;;1.73;100.00;95997.06;5027221;28;20037;-47
2021/12/09 04:11:51;;;;;;;14.57;5.88;;;2.60;99.90;;;1.59;100.00;95974.00;5025139;28;20079;-44
2021/12/09 04:14:17;;;;;;;14.52;5.65;;;2.60;99.90;;;1.75;100.00;96001.31;5028382;28;20033;-47
2021/12/09 04:16:43;;;;;;;10.23;5.20;;;2.60;99.90;;;1.74;100.00;96011.75;5017973;28;20025;-42
2021/12/09 04:19:11;;;;;;;9.32;4.53;;;2.60;99.90;;;1.72;100.00;96014.38;5018248;28;20033;-45
2021/12/09 04:21:38;;;;;;;9.63;5.13;;;2.60;99.90;;;1.62;100.00;96003.34;5025955;28;20029;-47
2021/12/09 04:24:08;;;;;;;13.05;5.13;;;2.60;99.90;;;1.60;100.00;96004.28;5027791;28;20029;-46
2021/12/09 04:26:47;;;;;;;10.80;4.70;;;2.50;99.90;;;1.47;100.00;96014.09;5029306;28;20495;-42
2021/12/09 04:29:14;;;;;;;14.52;5.50;;;2.40;99.90;;;1.41;100.00;96004.72;5019592;28;20180;-44
2021/12/09 04:31:42;;;;;;;20.30;5.82;;;2.40;99.90;;;1.35;100.00;96002.28;5027565;28;20342;-47
2021/12/09 04:34:08;;;;;;;12.38;4.93;;;2.30;99.90;;;1.32;100.00;96007.53;5023299;28;20570;-46
2021/12/09 04:36:34;;;;;;;11.95;4.40;;;2.20;99.90;;;1.25;100.00;96006.81;5024644;28;20041;-45
2021/12/09 04:39:00;;;;;;;13.75;4.50;;;2.20;99.90;;;1.21;100.00;96017.31;5026726;28;20414;-46
2021/12/09 04:41:26;;;;;;;9.68;4.60;;;2.10;99.90;;;1.16;100.00;96030.38;5027335;28;20033;-49
2021/12/09 04:43:51;;;;;;;13.02;4.40;;;2.10;99.90;;;1.16;100.00;96026.94;5023891;28;20034;-44
2021/12/09 04:46:18;;;;;;;13.40;4.75;;;2.10;99.90;;;1.20;100.00;96042.41;5023522;28;20468;-45
2021/12/09 04:48:44;;;;;;;15.07;4.35;;;2.10;99.90;;;1.24;100.00;96045.78;5007775;28;20064;-45
2021/12/09 04:51:10;;;;;;;10.82;4.65;;;2.20;99.90;;;1.38;100.00;96054.13;5026945;28;20124;-45
2021/12/09 04:53:36;;;;;;;15.95;4.50;;;2.30;99.90;;;1.43;100.00;96054.03;5024921;28;20120;-45
2021/12/09 04:56:02;;;;;;;11.88;4.20;;;2.30;99.90;;;1.48;100.00;96052.19;5027113;28;20128;-46
2021/12/09 04:58:29;;;;;;;14.50;4.85;;;2.40;99.90;;;1.46;100.00;96061.78;5015405;28;20437;-46
2021/12/09 05:00:59;;;;;;;14.77;4.65;;;2.40;99.90;;;1.51;100.00;96072.91;5024156;28;20033;-45
2021/12/09 05:03:25;;;;;;;11.73;4.32;;;2.40;99.90;;;1.48;100.00;96068.63;5021053;28;20485;-44
2021/12/09 05:05:53;;;;;;;10.90;4.82;;;2.40;99.90;;;1.49;100.00;96074.69;5034762;22;20057;-89
2021/12/09 05:08:22;;;;;;;8.40;3.72;;;2.40;99.90;;;1.35;100.00;96046.44;5003571;28;20041;-88
2021/12/09 05:11:07;;;;;;;13.00;4.05;;;2.40;99.90;;;1.14;100.00;96008.78;5016046;28;20077;-89
2021/12/09 05:13:37;;;;;;;7.68;3.70;;;2.50;99.90;;;1.33;100.00;96043.00;5008331;28;20459;-89
2021/12/09 05:16:06;;;;;;;8.65;3.63;;;2.50;99.90;;;1.12;100.00;96014.00;5025630;28;20032;-89
2021/12/09 05:18:34;;;;;;;8.45;3.30;;;2.40;99.90;;;1.47;100.00;96076.47;5021169;28;20048;-88
2021/12/09 05:21:01;;;;;;;13.07;3.10;;;2.40;99.90;;;1.30;100.00;96066.44;5022593;28;20037;-88
2021/12/09 05:23:27;;;;;;;8.07;2.90;;;2.40;99.90;;;1.13;100.00;96043.44;5017392;28;20025;-88
2021/12/09 05:25:53;;;;;;;10.98;3.20;;;2.40;99.90;;;1.11;100.00;96047.81;5009009;28;20018;-88
2021/12/09 05:28:27;;;;;;;11.18;3.15;;;2.40;99.90;;;1.32;100.00;96072.47;5016617;28;20402;-88
2021/12/09 05:33:37;;;;;;;6.10;2.88;;;2.50;99.90;;;1.63;100.00;96121.16;5016274;28;20465;-88
2021/12/09 05:36:03;;;;;;;5.88;2.70;;;2.50;99.90;;;1.33;100.00;96063.78;5021374;28;20352;-89
2021/12/09 05:38:29;;;;;;;4.57;2.38;;;2.50;99.90;;;1.24;100.00;96051.84;5002469;28;20030;-88
2021/12/09 05:40:54;;;;;;;6.68;2.72;;;2.60;99.90;;;1.43;100.00;96080.03;5005180;28;20099;-89
2021/12/09 05:43:20;;;;;;;6.22;2.70;;;2.60;99.90;;;1.46;100.00;96087.75;5008851;28;20044;-88
2021/12/09 05:45:48;;;;;;;6.55;2.60;;;2.60;99.90;;;1.76;100.00;96140.78;5012466;28;20094;-89
2021/12/09 05:48:15;;;;;;;5.50;2.50;;;2.60;99.90;;;1.30;100.00;96069.03;5011570;28;20444;-89
2021/12/09 05:50:42;;;;;;;7.15;2.58;;;2.60;99.90;;;1.37;100.00;96082.75;5019411;28;20026;-88
2021/12/09 05:53:08;;;;;;;6.00;2.80;;;2.60;99.90;;;1.38;100.00;96092.25;5009486;28;20025;-89
2021/12/09 05:55:34;;;;;;;7.25;2.60;;;2.60;99.90;;;1.23;100.00;96076.09;5011000;28;20120;-89
2021/12/09 05:58:14;;;;;;;8.07;2.47;;;2.50;99.90;;;1.49;100.00;96124.91;5008315;28;20124;-89
2021/12/09 06:01:14;;;;;;;7.38;2.80;;;2.50;99.90;;;1.01;100.00;96056.69;5023480;28;20048;-89
2021/12/09 06:08:03;;;;;;;7.18;2.00;;;2.40;99.90;;;1.49;100.00;96148.31;4863379;29;20550;-88
2021/12/09 06:14:47;;;;;;;7.20;2.20;;;2.40;99.90;;;1.47;100.00;96141.41;4951478;28;20077;-88
2021/12/09 06:17:13;;;;;;;6.35;2.25;;;2.30;99.90;;;0.71;100.00;96028.72;4961208;28;20220;-89
2021/12/09 06:19:39;;;;;;;4.38;1.75;;;2.30;99.90;;;0.87;100.00;96065.59;5007987;28;20021;-89
2021/12/09 06:22:04;;;;;;;4.35;1.73;;;2.30;99.90;;;0.78;100.00;96050.22;5020867;28;20037;-89
2021/12/09 06:24:30;;;;;;;5.95;2.00;;;2.30;99.90;;;0.78;100.00;96045.03;5012312;28;20466;-89
2021/12/09 06:26:57;;;;;;;5.20;1.98;;;2.30;99.90;;;1.34;100.00;96122.63;5007508;28;20040;-89
2021/12/09 06:29:23;;;;;;;5.90;1.60;;;2.40;99.90;;;1.20;100.00;96091.75;5022961;28;20021;-89
2021/12/09 06:31:49;;;;;;;8.23;2.40;;;2.40;99.90;;;1.19;100.00;96082.25;5005867;28;20036;-89
2021/12/09 06:34:15;;;;;;;8.77;2.38;;;2.40;99.90;;;1.23;100.00;96083.91;5006724;28;20025;-89
2021/12/09 06:36:42;;;;;;;6.13;1.80;;;2.40;99.90;;;1.48;100.00;96111.94;5002617;28;20038;-89
2021/12/09 06:39:09;;;;;;;3.63;2.10;;;2.50;99.90;;;1.18;100.00;96069.31;5023077;28;20124;-88
2021/12/09 06:41:34;;;;;;;4.00;1.83;;;2.50;99.90;;;1.66;100.00;96144.47;5009456;28;20029;-88
2021/12/09 06:44:02;;;;;;;9.52;2.80;;;2.50;99.90;;;1.24;100.00;96064.84;5024028;28;20041;-89
2021/12/09 06:46:31;;;;;;;7.22;1.90;;;2.50;99.90;;;1.34;100.00;96096.66;5007705;28;20057;-88
2021/12/09 06:48:57;;;;;;;4.78;1.83;;;2.50;99.90;;;1.62;100.00;96143.69;5008940;28;20352;-89
2021/12/09 06:51:24;;;;;;;7.30;2.10;;;2.50;99.90;;;1.44;100.00;96112.91;5021083;28;20363;-89
2021/12/09 06:53:50;;;;;;;5.57;2.35;;;2.50;99.90;;;1.46;100.00;96113.72;5019851;28;20034;-89
2021/12/09 06:56:16;;;;;;;4.25;2.03;;;2.50;99.90;;;1.16;100.00;96061.53;5002031;28;20037;-89
2021/12/09 06:58:42;;;;;;;7.40;2.58;;;2.50;99.90;;;1.56;100.00;96125.63;5023602;28;20040;-89
2021/12/09 07:01:08;;;;;;;10.20;2.92;;;2.50;99.90;;;1.49;100.00;96129.22;5015426;28;20034;-89
2021/12/09 07:03:38;;;;;;;4.88;2.30;;;2.50;99.90;;;0.94;100.00;96041.22;5037575;28;20029;-89
2021/12/09 07:06:06;;;;;;;6.18;2.47;;;2.50;99.90;;;1.27;100.00;96074.31;5019260;28;20032;-89
2021/12/09 07:08:35;;;;;;;5.32;2.30;;;2.50;99.90;;;1.48;100.00;96111.94;5038739;28;20568;-88
2021/12/09 07:11:02;;;;;;;5.03;2.10;;;2.50;99.90;;;1.58;100.00;96134.25;5020860;28;20033;-89
2021/12/09 07:13:30;;;;;;;6.72;1.83;;;2.50;99.90;;;1.71;100.00;96137.44;5005308;28;20017;-89
2021/12/09 07:15:58;;;;;;;4.85;1.90;;;2.50;99.90;;;1.33;100.00;96082.81;5016565;28;20102;-89
2021/12/09 07:18:25;;;;;;;6.32;2.20;;;2.60;99.90;;;1.50;100.00;96108.41;5016886;28;20022;-89
2021/12/09 07:20:52;;;;;;;4.78;1.98;;;2.60;99.90;;;1.69;100.00;96145.25;5017928;28;20029;-89
2021/12/09 07:23:19;;;;;;;8.57;2.35;;;2.60;99.90;;;1.75;100.00;96151.22;5014692;28;20409;-89
2021/12/09 07:25:45;;;;;;;3.85;2.00;;;2.70;99.90;;;1.74;100.00;96152.09;5004149;28;20057;-89
2021/12/09 07:28:11;;;;;;;7.10;1.80;;;2.70;99.90;;;1.52;100.00;96121.38;5004801;28;20037;-87
2021/12/09 07:30:37;;;;;;;6.70;2.38;;;2.70;99.90;;;1.63;100.00;96129.78;5009693;28;20103;-88
2021/12/09 07:33:03;;;;;;;4.93;1.67;;;2.70;99.90;;;1.70;100.00;96128.75;5023769;28;20456;-88
2021/12/09 07:35:30;;;;;;;5.22;2.00;;;2.70;99.90;;;1.67;100.00;96117.56;5005716;28;20029;-89
2021/12/09 07:37:58;;;;;;;9.13;2.00;;;2.80;99.90;;;2.04;100.00;96167.00;5009450;28;20402;-88
2021/12/09 07:40:25;;;;;;;4.60;2.00;;;2.80;99.90;;;1.85;100.00;96152.72;5023037;28;20525;-89
2021/12/09 07:42:52;;;;;;;9.48;1.92;;;2.90;99.90;;;1.89;100.00;96155.22;5024153;28;20041;-88
2021/12/09 07:45:19;;;;;;;4.38;2.13;;;2.90;99.90;;;1.72;100.00;96120.94;5012914;28;20075;-89
2021/12/09 07:47:46;;;;;;;4.22;1.65;;;2.90;99.90;;;1.76;100.00;96129.53;5006780;28;20445;-88
2021/12/09 07:50:17;;;;;;;4.57;1.58;;;2.90;99.90;;;1.83;100.00;96144.09;5003979;28;20091;-88
2021/12/09 07:52:47;;;;;;;5.45;1.83;;;2.90;99.90;;;2.07;100.00;96182.53;5025074;28;20497;-89
2021/12/09 07:55:15;;;;;;;3.40;1.90;;;3.00;99.90;;;1.75;100.00;96133.88;5025101;28;20034;-89
2021/12/09 07:57:42;;;;;;;7.03;1.90;;;3.00;99.90;;;1.81;100.00;96141.56;5024539;28;20030;-88
2021/12/09 08:00:13;;;;;;;4.35;1.98;;;3.00;99.90;;;1.98;100.00;96163.72;5007492;28;20030;-86
2021/12/09 08:02:44;;;;;;;6.57;2.50;;;3.00;99.90;;;1.78;100.00;96133.81;5015446;28;20030;-88
2021/12/09 08:05:13;;;;;;;9.75;2.13;;;3.00;99.90;;;2.15;100.00;96189.31;5004637;28;20084;-87
2021/12/09 08:07:41;;;;;;;6.35;2.13;;;3.00;99.90;;;1.98;100.00;96151.56;5000553;28;20283;-88
2021/12/09 08:10:10;;;;;;;4.65;2.00;;;3.10;99.90;;;1.94;100.00;96141.25;5012811;28;20040;-89
2021/12/09 08:12:36;;;;;;;5.53;2.10;;;3.10;99.90;;;2.16;100.00;96176.28;5001015;28;20056;-87
2021/12/09 08:15:06;;;;;;;5.20;1.80;;;3.10;99.90;;;2.32;100.00;96186.34;5018222;28;20045;-87
2021/12/09 08:20:07;;;;;;;8.73;2.70;;;3.20;99.90;;;2.32;100.00;96181.13;5025715;28;20036;-89
2021/12/09 08:22:33;;;;;;;5.43;2.05;;;3.20;99.90;;;2.08;100.00;96134.84;5006809;28;20152;-87
2021/12/09 08:25:00;;;;;;;5.55;1.90;;;3.30;99.90;;;2.10;100.00;96130.47;5004141;28;20049;-87
2021/12/09 08:27:27;;;;;;;4.75;2.15;;;3.30;99.90;;;2.51;100.00;96187.56;5006426;28;20402;-87
2021/12/09 08:29:53;;;;;;;4.05;2.17;;;3.40;99.90;;;2.55;100.00;96193.56;5022151;28;20033;-89
2021/12/09 08:32:18;;;;;;;5.70;2.35;;;3.50;99.90;;;2.45;100.00;96177.31;5021275;28;20022;-89
2021/12/09 08:34:44;;;;;;;4.40;1.92;;;3.50;99.90;;;2.46;100.00;96166.03;5015023;28;20048;-90
2021/12/09 08:37:11;;;;;;;3.40;2.22;;;3.50;99.90;;;2.68;100.00;96187.16;5015686;28;20053;-90
2021/12/09 08:39:37;;;;;;;5.40;2.42;;;3.60;99.90;;;2.52;100.00;96146.81;5001522;28;20041;-89
2021/12/09 08:42:03;;;;;;;7.00;2.38;;;3.70;99.90;;;2.58;100.00;96159.66;5008053;28;20034;-90
2021/12/09 08:44:29;;;;;;;7.50;2.17;;;3.80;99.90;;;2.76;100.00;96159.16;5002298;28;20029;-90
2021/12/09 08:46:54;;;;;;;8.85;2.60;;;3.90;99.90;;;2.74;100.00;96163.56;5017941;28;20029;-89
2021/12/09 08:49:20;;;;;;;5.75;2.17;;;3.90;99.90;;;3.11;100.00;96219.91;5021158;28;20033;-89
2021/12/09 08:51:46;;;;;;;4.97;2.22;;;3.90;99.90;;;2.91;100.00;96183.09;5013556;28;20140;-88
2021/12/09 08:54:14;;;;;;;9.30;3.60;;;4.00;99.90;;;2.82;100.00;96172.06;5005677;28;20034;-89
2021/12/09 08:56:40;;;;;;;5.72;2.97;;;4.00;99.90;;;3.19;100.00;96223.16;5015531;28;20040;-89
2021/12/09 08:59:06;;;;;;;6.40;2.75;;;4.00;99.90;;;3.01;100.00;96201.06;5022543;28;20033;-89
2021/12/09 09:01:34;;;;;;;7.22;2.70;;;4.00;99.90;;;2.95;100.00;96187.34;5015745;28;20046;-89
2021/12/09 09:04:01;;;;;;;8.50;2.50;;;4.00;99.90;;;2.93;100.00;96176.13;5012687;28;20026;-89
2021/12/09 09:06:32;;;;;;;6.50;2.97;;;4.10;99.90;;;2.85;100.00;96177.19;5012977;28;20085;-88
2021/12/09 09:09:00;;;;;;;7.68;2.55;;;4.10;99.90;;;3.29;100.00;96226.38;5019874;28;20110;-88
2021/12/09 09:11:25;;;;;;;6.28;3.05;;;4.10;99.90;;;3.04;100.00;96192.31;5039236;28;20033;-89
2021/12/09 09:13:51;;;;;;;6.85;2.55;;;4.20;99.90;;;3.00;100.00;96180.28;5021673;28;20029;-90
2021/12/09 09:16:17;;;;;;;7.25;2.75;;;4.20;99.90;;;3.25;100.00;96223.00;5003107;28;20148;-89
2021/12/09 09:18:44;;;;;;;3.92;2.33;;;4.20;99.90;;;3.48;100.00;96246.72;5006707;28;20636;-88
2021/12/09 09:21:10;;;;;;;7.30;2.40;;;4.30;99.90;;;3.48;100.00;96226.72;5002939;28;20043;-87
2021/12/09 09:23:36;;;;;;;6.68;2.58;;;4.30;99.90;;;3.30;100.00;96194.19;5016801;28;20042;-88
2021/12/09 09:26:03;;;;;;;4.40;2.30;;;4.50;99.90;;;3.37;100.00;96187.06;5023593;28;20471;-89
2021/12/09 09:28:29;;;;;;;8.88;2.88;;;4.50;99.90;;;3.88;100.00;96254.28;5006256;28;20116;-89
2021/12/09 09:30:57;;;;;;;7.00;2.80;;;4.60;99.90;;;3.86;100.00;96252.63;5013689;28;20116;-88
2021/12/09 09:33:29;;;;;;;7.85;2.53;;;4.70;99.90;;;3.88;100.00;96250.84;5027015;28;20029;-89
2021/12/09 09:35:56;;;;;;;6.30;2.67;;;4.60;99.90;;;3.79;100.00;96257.19;5018321;28;20025;-89
2021/12/09 09:38:23;;;;;;;7.82;2.53;;;4.60;99.90;;;3.62;100.00;96224.63;5036005;28;20104;-89
2021/12/09 09:41:04;;;;;;;6.80;2.70;;;4.60;99.90;;;3.85;100.00;96262.19;5007127;28;20021;-88
2021/12/09 09:43:54;;;;;;;5.32;2.83;;;4.70;99.90;;;3.68;100.00;96228.78;5018724;28;20117;-89
2021/12/09 09:46:26;;;;;;;4.68;2.60;;;4.70;99.90;;;3.77;100.00;96228.53;5035315;28;20367;-89
2021/12/09 09:48:53;;;;;;;9.25;2.67;;;4.70;99.90;;;3.98;100.00;96270.53;5007908;28;20060;-88
2021/12/09 09:51:23;;;;;;;7.10;2.70;;;4.80;99.90;;;4.04;100.00;96270.38;5021705;28;20033;-89
2021/12/09 09:53:49;;;;;;;4.38;2.20;;;4.80;99.90;;;3.97;100.00;96243.59;5021955;28;20025;-88
2021/12/09 09:56:19;;;;;;;5.45;2.67;;;4.90;99.90;;;4.05;100.00;96260.78;5013301;28;20026;-88
2021/12/09 09:58:49;;;;;;;7.28;2.67;;;4.90;99.90;;;4.14;100.00;96255.28;5010339;28;20029;-88
2021/12/09 10:01:16;;;;;;;6.93;3.10;;;5.00;99.90;;;3.88;100.00;96215.19;5007194;28;20032;-89
2021/12/09 10:03:47;;;;;;;4.68;2.42;;;5.10;99.90;;;4.43;100.00;96279.66;5003879;28;20025;-89
2021/12/09 10:06:15;;;;;;;4.85;2.33;;;5.10;99.90;;;4.06;100.00;96224.22;5025816;28;20034;-88
2021/12/09 10:08:41;;;;;;;7.75;2.80;;;5.20;99.90;;;4.25;100.00;96258.41;5022916;28;20029;-87
2021/12/09 10:11:07;;;;;;;4.82;2.42;;;5.20;99.90;;;4.36;100.00;96260.69;5024186;28;20418;-88
2021/12/09 10:13:38;;;;;;;14.00;2.95;;;5.20;99.90;;;4.38;100.00;96270.22;5021997;28;20116;-89
2021/12/09 10:16:21;;;;;;;4.75;2.70;;;5.30;99.90;;;4.37;100.00;96258.03;5010233;28;20063;-88
2021/12/09 10:18:51;;;;;;;6.30;2.30;;;5.30;99.90;;;4.57;100.00;96280.91;5023626;28;20028;-88
2021/12/09 10:21:28;;;;;;;3.50;2.25;;;5.40;99.90;;;4.55;100.00;96277.50;5003731;28;20042;-88
2021/12/09 10:24:12;;;;;;;3.45;2.13;;;5.40;99.90;;;4.53;100.00;96283.69;5012699;28;20077;-88
2021/12/09 10:26:47;;;;;;;5.65;2.47;;;5.40;99.90;;;4.51;100.00;96272.44;5022754;28;20029;-88
2021/12/09 10:29:25;;;;;;;7.00;2.63;;;5.40;99.90;;;4.41;100.00;96271.84;5018657;28;20103;-88
2021/12/09 10:31:59;;;;;;;5.38;2.47;;;5.40;99.90;;;4.25;100.00;96260.19;5004301;28;20025;-88
2021/12/09 10:34:40;;;;;;;5.90;1.90;;;5.30;99.90;;;4.52;100.00;96280.25;5010477;28;20530;-89
2021/12/09 10:37:24;;;;;;;5.47;2.30;;;5.30;99.90;;;4.61;100.00;96281.69;5042897;28;20037;-88
2021/12/09 10:40:03;;;;;;;5.00;2.10;;;5.40;99.90;;;4.43;100.00;96275.28;5020531;28;20358;-88
2021/12/09 10:43:01;;;;;;;4.85;2.30;;;5.40;99.90;;;4.16;100.00;96225.66;5022656;28;20053;-88
2021/12/09 10:45:39;;;;;;;5.88;2.42;;;5.40;99.90;;;4.15;100.00;96223.09;4994924;28;20041;-87